HLP weather

Halim Perdanakusuma International Airport
Jakarta, Jakarta Raya, Indonesia

Public forecast

Using degrees Celsius for public forecast. Weather courtesy of forecast.io.

METAR (pilot weather report)

Retrieved 2019/04/22 06:00 UTC (7 minutes ago):

WIHH 220600Z 11008KT 7000 SCT018 33/24 Q1006 NOSIG

TAF (pilot weather forecast)

Retrieved 2019/04/22 06:00 UTC (7 minutes ago):

TAF WIHH 220500Z 2206/2306 09010KT 7000 SCT018 TEMPO 2209/2212 4000 -RA FEW017CB SCT018 BECMG 2214/2216 18005KT 5000 HZ FEW021